createdAt,value
2022-12-31T00:01:19.547Z,1.27
2022-12-31T00:04:14.009Z,1.20
2022-12-31T00:07:08.516Z,0.80
2022-12-31T00:10:02.758Z,1.02
2022-12-31T00:12:57.101Z,0.85
2022-12-31T00:15:51.412Z,0.88
2022-12-31T00:18:47.518Z,1.45
2022-12-31T00:21:42.259Z,0.97
2022-12-31T00:24:37.171Z,1.02
2022-12-31T00:27:35.175Z,1.20
2022-12-31T00:30:29.588Z,0.80
2022-12-31T00:33:24.026Z,1.20
2022-12-31T00:36:32.970Z,0.93
2022-12-31T00:39:27.278Z,0.90
2022-12-31T00:42:21.552Z,0.88
2022-12-31T00:45:15.855Z,0.90
2022-12-31T00:48:10.153Z,1.00
2022-12-31T00:51:06.693Z,0.80
2022-12-31T00:54:01.179Z,0.93
2022-12-31T00:56:55.405Z,1.00
2022-12-31T00:59:49.794Z,0.73
2022-12-31T01:02:44.339Z,0.85
2022-12-31T01:05:39.340Z,0.77
2022-12-31T01:08:34.456Z,1.00
2022-12-31T01:11:32.008Z,1.30
2022-12-31T01:14:26.320Z,1.13
2022-12-31T01:17:20.832Z,1.55
2022-12-31T01:20:15.143Z,1.17
2022-12-31T01:23:10.877Z,1.13
2022-12-31T01:26:07.368Z,1.40
2022-12-31T01:29:01.795Z,1.00
2022-12-31T01:31:56.143Z,1.40
2022-12-31T01:34:50.722Z,1.13
2022-12-31T01:37:45.118Z,1.30
2022-12-31T01:40:40.736Z,1.25
2022-12-31T01:44:10.263Z,1.10
2022-12-31T01:47:06.397Z,1.30
2022-12-31T01:50:24.076Z,1.75
2022-12-31T01:56:13.383Z,1.40
2022-12-31T01:59:09.709Z,1.50
2022-12-31T02:02:05.015Z,1.20
2022-12-31T02:05:03.131Z,1.10
2022-12-31T02:07:57.817Z,1.52
2022-12-31T02:10:52.408Z,1.17
2022-12-31T02:13:46.668Z,1.40
2022-12-31T02:16:56.250Z,1.40
2022-12-31T02:20:18.316Z,1.10
2022-12-31T02:23:31.231Z,1.13
2022-12-31T02:26:28.396Z,1.35
2022-12-31T02:29:59.940Z,1.10
2022-12-31T02:33:21.780Z,1.17
2022-12-31T02:36:24.808Z,0.95
2022-12-31T02:39:20.093Z,1.17
2022-12-31T02:42:14.828Z,0.80
2022-12-31T02:45:12.502Z,1.45
2022-12-31T02:48:33.626Z,1.25
2022-12-31T02:51:48.580Z,1.13
2022-12-31T02:54:53.136Z,1.15
2022-12-31T02:58:00.425Z,0.98
2022-12-31T03:01:17.689Z,1.30
2022-12-31T03:04:31.632Z,1.00
2022-12-31T03:07:29.191Z,1.40
2022-12-31T03:10:23.642Z,1.00
2022-12-31T03:13:18.088Z,1.40
2022-12-31T03:16:12.491Z,1.23
2022-12-31T03:19:25.094Z,0.90
2022-12-31T03:22:31.613Z,1.13
2022-12-31T03:25:36.352Z,1.23
2022-12-31T03:28:31.972Z,1.08
2022-12-31T03:31:26.464Z,1.10
2022-12-31T03:34:20.890Z,1.10
2022-12-31T03:37:15.339Z,1.20
2022-12-31T03:40:12.216Z,1.10
2022-12-31T03:43:06.767Z,1.00
2022-12-31T03:46:02.738Z,1.10
2022-12-31T03:48:57.115Z,0.90
2022-12-31T03:51:51.434Z,0.85
2022-12-31T03:54:45.789Z,1.30
2022-12-31T03:57:40.306Z,1.20
2022-12-31T04:00:34.780Z,1.00
2022-12-31T04:03:29.973Z,0.90
2022-12-31T04:06:24.395Z,1.60
2022-12-31T04:09:18.645Z,1.52
2022-12-31T04:12:12.964Z,0.90
2022-12-31T04:15:10.000Z,1.30
2022-12-31T04:18:04.447Z,1.00
2022-12-31T04:21:06.928Z,1.23
2022-12-31T04:24:01.437Z,1.08
2022-12-31T04:26:55.738Z,1.00
2022-12-31T04:29:50.024Z,1.10
2022-12-31T04:32:44.845Z,1.20
2022-12-31T04:35:39.210Z,1.15
2022-12-31T04:38:33.549Z,1.20
2022-12-31T04:41:28.627Z,1.10
2022-12-31T04:44:23.315Z,0.77
2022-12-31T04:47:23.429Z,1.08
2022-12-31T04:50:18.225Z,1.15
2022-12-31T04:53:12.814Z,1.10
2022-12-31T04:56:08.228Z,1.10
2022-12-31T04:59:02.832Z,1.30
2022-12-31T05:01:57.253Z,1.50
2022-12-31T05:04:51.742Z,1.13
2022-12-31T05:07:46.121Z,1.10
2022-12-31T05:10:47.509Z,0.98
2022-12-31T05:13:41.827Z,0.88
2022-12-31T05:16:37.432Z,1.23
2022-12-31T05:19:31.766Z,1.30
2022-12-31T05:22:32.199Z,1.10
2022-12-31T05:25:26.570Z,1.25
2022-12-31T05:28:20.978Z,1.05
2022-12-31T05:31:16.260Z,1.05
2022-12-31T05:34:10.678Z,1.13
2022-12-31T05:37:05.099Z,0.80
2022-12-31T05:39:59.892Z,0.85
2022-12-31T05:42:54.252Z,0.90
2022-12-31T05:45:48.680Z,1.02
2022-12-31T05:48:42.985Z,0.70
2022-12-31T05:51:37.351Z,1.17
2022-12-31T05:54:31.687Z,1.00
2022-12-31T05:57:26.002Z,1.00
2022-12-31T06:00:20.430Z,1.30
2022-12-31T06:03:15.194Z,1.73
2022-12-31T06:06:09.685Z,0.90
2022-12-31T06:09:04.052Z,1.00
2022-12-31T06:11:58.303Z,0.85
2022-12-31T06:14:52.661Z,0.80
2022-12-31T06:17:49.326Z,0.90
2022-12-31T06:20:43.868Z,1.02
2022-12-31T06:23:38.150Z,1.42
2022-12-31T06:26:32.544Z,0.95
2022-12-31T06:29:26.829Z,0.80
2022-12-31T06:32:21.233Z,1.17
2022-12-31T06:35:15.576Z,0.98
2022-12-31T06:38:09.988Z,1.08
2022-12-31T06:41:09.296Z,0.77
2022-12-31T06:44:03.895Z,0.98
2022-12-31T06:46:58.176Z,1.13
2022-12-31T06:49:53.606Z,1.02
2022-12-31T06:52:47.843Z,0.98
2022-12-31T06:55:43.107Z,1.08
2022-12-31T06:58:38.332Z,0.90
2022-12-31T07:02:02.282Z,1.25
2022-12-31T07:05:02.516Z,1.08
2022-12-31T07:08:11.713Z,1.00
2022-12-31T07:11:15.683Z,1.13
2022-12-31T07:14:39.054Z,0.90
2022-12-31T07:17:48.465Z,1.02
2022-12-31T07:20:43.163Z,1.00
2022-12-31T07:23:37.763Z,1.10
2022-12-31T07:26:52.639Z,1.15
2022-12-31T07:29:59.322Z,0.93
2022-12-31T07:32:59.792Z,0.90
2022-12-31T07:36:10.203Z,1.25
2022-12-31T07:39:30.349Z,1.00
2022-12-31T07:43:10.284Z,1.33
2022-12-31T07:46:15.737Z,1.13
2022-12-31T07:49:17.131Z,0.73
2022-12-31T07:52:12.167Z,1.10
2022-12-31T07:55:06.915Z,1.30
2022-12-31T07:58:19.204Z,0.75
2022-12-31T08:01:24.451Z,1.02
2022-12-31T08:04:47.960Z,1.15
2022-12-31T08:08:12.823Z,1.20
2022-12-31T08:11:24.881Z,0.80
2022-12-31T08:14:21.297Z,0.80
2022-12-31T08:17:17.937Z,1.20
2022-12-31T08:23:38.434Z,0.90
2022-12-31T08:26:53.069Z,1.10
2022-12-31T08:30:07.965Z,1.45
2022-12-31T08:33:11.728Z,0.80
2022-12-31T08:36:21.265Z,1.20
2022-12-31T08:39:24.422Z,0.98
2022-12-31T08:42:40.118Z,0.95
2022-12-31T08:45:49.067Z,1.30
2022-12-31T08:48:45.460Z,1.13
2022-12-31T08:51:40.045Z,1.35
2022-12-31T08:54:35.003Z,1.65
2022-12-31T08:57:32.372Z,1.58
2022-12-31T09:00:28.222Z,0.95
2022-12-31T09:03:57.093Z,2.70
2022-12-31T09:07:00.562Z,1.75
2022-12-31T09:09:57.874Z,2.33
2022-12-31T09:13:10.255Z,1.30
2022-12-31T09:16:13.573Z,1.00
2022-12-31T09:19:10.182Z,1.50
2022-12-31T09:22:04.928Z,0.90
2022-12-31T09:24:59.759Z,1.30
2022-12-31T09:28:04.971Z,1.48
2022-12-31T09:31:17.307Z,1.00
2022-12-31T09:34:35.017Z,1.30
2022-12-31T09:37:50.913Z,1.08
2022-12-31T09:41:09.433Z,1.17
2022-12-31T09:44:19.097Z,1.42
2022-12-31T09:47:38.012Z,1.05
2022-12-31T09:50:57.001Z,1.38
2022-12-31T09:54:27.926Z,1.30
2022-12-31T09:57:41.318Z,0.95
2022-12-31T10:00:58.539Z,1.23
2022-12-31T10:04:11.424Z,1.95
2022-12-31T10:07:18.675Z,1.00
2022-12-31T10:10:50.471Z,1.35
2022-12-31T10:13:44.654Z,1.23
2022-12-31T10:17:16.115Z,1.05
2022-12-31T10:20:29.448Z,0.90
2022-12-31T10:23:42.242Z,1.00
2022-12-31T10:27:03.987Z,1.30
2022-12-31T10:30:05.037Z,1.20
2022-12-31T10:33:37.801Z,1.17
2022-12-31T10:36:57.749Z,1.00
2022-12-31T10:40:04.256Z,1.00
2022-12-31T10:43:29.260Z,0.90
2022-12-31T10:47:05.133Z,2.20
2022-12-31T10:50:17.993Z,2.38
2022-12-31T10:53:37.588Z,1.65
2022-12-31T10:57:08.765Z,1.35
2022-12-31T11:00:18.214Z,1.00
2022-12-31T11:03:15.562Z,1.08
2022-12-31T11:06:46.137Z,1.00
2022-12-31T11:09:55.861Z,1.00
2022-12-31T11:13:14.533Z,1.10
2022-12-31T11:16:30.185Z,1.20
2022-12-31T11:19:34.318Z,1.10
2022-12-31T11:22:51.912Z,0.80
2022-12-31T11:26:08.739Z,0.80
2022-12-31T11:29:30.908Z,0.82
2022-12-31T11:33:20.617Z,1.30
2022-12-31T11:36:19.797Z,0.90
2022-12-31T11:39:32.295Z,1.00
2022-12-31T11:42:44.648Z,1.60
2022-12-31T11:46:20.219Z,1.48
2022-12-31T11:49:29.919Z,1.30
2022-12-31T11:52:40.121Z,1.20
2022-12-31T11:55:43.868Z,1.00
2022-12-31T11:58:38.250Z,1.13
2022-12-31T12:02:02.064Z,1.40
2022-12-31T12:05:00.872Z,1.20
2022-12-31T12:07:58.488Z,1.40
2022-12-31T12:11:07.099Z,1.40
2022-12-31T12:14:01.598Z,1.55
2022-12-31T12:17:04.759Z,1.60
2022-12-31T12:20:04.789Z,2.00
2022-12-31T12:23:01.100Z,1.73
2022-12-31T12:25:55.462Z,1.60
2022-12-31T12:28:49.765Z,2.05
2022-12-31T12:31:57.717Z,1.50
2022-12-31T12:34:52.529Z,1.60
2022-12-31T12:37:47.103Z,1.20
2022-12-31T12:40:41.656Z,1.48
2022-12-31T12:43:38.531Z,1.70
2022-12-31T12:46:50.508Z,1.60
2022-12-31T12:49:48.898Z,1.60
2022-12-31T12:53:17.068Z,1.27
2022-12-31T12:56:29.785Z,1.75
2022-12-31T13:00:05.801Z,1.42
2022-12-31T13:03:28.385Z,1.67
2022-12-31T13:06:28.933Z,1.58
2022-12-31T13:10:08.760Z,2.00
2022-12-31T13:13:24.993Z,1.80
2022-12-31T13:16:27.521Z,1.83
2022-12-31T13:19:46.552Z,1.30
2022-12-31T13:22:57.466Z,1.42
2022-12-31T13:26:10.942Z,1.25
2022-12-31T13:29:07.559Z,1.20
2022-12-31T13:32:06.305Z,1.20
2022-12-31T13:35:35.281Z,1.20
2022-12-31T13:38:54.470Z,1.23
2022-12-31T13:41:59.437Z,1.05
2022-12-31T13:45:06.068Z,1.20
2022-12-31T13:48:08.424Z,1.52
2022-12-31T13:51:16.724Z,1.17
2022-12-31T13:54:48.414Z,1.17
2022-12-31T13:57:57.738Z,1.10
2022-12-31T14:01:00.475Z,1.02
2022-12-31T14:04:13.385Z,1.40
2022-12-31T14:07:29.179Z,1.10
2022-12-31T14:10:48.927Z,1.10
2022-12-31T14:13:43.292Z,0.85
2022-12-31T14:16:58.905Z,1.27
2022-12-31T14:20:31.967Z,0.93
2022-12-31T14:23:38.477Z,1.15
2022-12-31T14:26:43.821Z,1.15
2022-12-31T14:29:51.442Z,1.38
2022-12-31T14:36:16.036Z,0.93
2022-12-31T14:39:25.178Z,0.73
2022-12-31T14:42:47.395Z,0.50
2022-12-31T14:46:13.276Z,1.05
2022-12-31T14:49:25.898Z,1.02
2022-12-31T14:52:36.824Z,0.98
2022-12-31T14:55:33.341Z,0.98
2022-12-31T14:58:40.565Z,0.73
2022-12-31T15:01:35.139Z,1.58
2022-12-31T15:04:46.764Z,1.02
2022-12-31T15:07:50.258Z,1.02
2022-12-31T15:10:59.166Z,1.10
2022-12-31T15:14:10.361Z,1.17
2022-12-31T15:17:18.115Z,0.80
2022-12-31T15:23:43.619Z,0.80
2022-12-31T15:26:38.640Z,0.73
2022-12-31T15:29:53.068Z,1.00
2022-12-31T15:32:49.399Z,1.15
2022-12-31T15:35:56.489Z,1.40
2022-12-31T15:38:52.047Z,0.88
2022-12-31T15:45:15.125Z,0.68
2022-12-31T15:48:28.281Z,0.93
2022-12-31T15:51:31.819Z,0.73
2022-12-31T15:54:47.929Z,0.75
2022-12-31T15:57:43.664Z,0.70
2022-12-31T16:01:11.180Z,0.88
2022-12-31T16:04:10.038Z,1.00
2022-12-31T16:07:05.735Z,0.85
2022-12-31T16:10:04.272Z,0.90
2022-12-31T16:13:00.141Z,0.95
2022-12-31T16:16:04.756Z,0.60
2022-12-31T16:19:00.167Z,1.08
2022-12-31T16:21:58.347Z,1.10
2022-12-31T16:28:20.724Z,1.27
2022-12-31T16:31:21.893Z,0.90
2022-12-31T16:34:19.177Z,1.10
2022-12-31T16:40:25.539Z,0.70
2022-12-31T16:43:40.207Z,0.70
2022-12-31T16:46:34.689Z,1.20
2022-12-31T16:49:32.255Z,1.65
2022-12-31T16:52:42.640Z,1.30
2022-12-31T16:55:37.719Z,1.25
2022-12-31T16:58:39.077Z,1.30
2022-12-31T17:01:37.576Z,1.40
2022-12-31T17:04:32.285Z,2.10
2022-12-31T17:07:29.673Z,2.08
2022-12-31T17:10:28.294Z,2.72
2022-12-31T17:13:38.697Z,2.95
2022-12-31T17:16:33.870Z,2.10
2022-12-31T17:20:02.337Z,2.58
2022-12-31T17:23:00.381Z,2.05
2022-12-31T17:26:23.710Z,2.05
2022-12-31T17:29:26.383Z,2.60
2022-12-31T17:32:38.899Z,2.40
2022-12-31T17:35:37.955Z,2.35
2022-12-31T17:38:34.720Z,2.17
2022-12-31T17:41:29.840Z,2.35
2022-12-31T17:44:28.562Z,2.72
2022-12-31T17:47:22.928Z,2.47
2022-12-31T17:50:22.048Z,2.55
2022-12-31T17:53:16.677Z,2.42
2022-12-31T17:56:19.749Z,2.33
2022-12-31T17:59:20.532Z,2.80
2022-12-31T18:02:15.684Z,2.83
2022-12-31T18:05:20.493Z,2.10
2022-12-31T18:08:14.874Z,2.60
2022-12-31T18:11:13.717Z,2.53
2022-12-31T18:14:08.692Z,2.50
2022-12-31T18:17:03.096Z,2.55
2022-12-31T18:20:05.574Z,2.22
2022-12-31T18:23:00.768Z,2.30
2022-12-31T18:25:55.294Z,2.50
2022-12-31T18:28:50.628Z,2.38
2022-12-31T18:31:47.923Z,2.22
2022-12-31T18:37:37.257Z,2.08
2022-12-31T18:40:31.492Z,2.10
2022-12-31T18:43:26.503Z,2.50
2022-12-31T18:46:23.140Z,2.15
2022-12-31T18:49:17.580Z,1.65
2022-12-31T18:52:16.254Z,2.10
2022-12-31T18:55:47.042Z,2.58
2022-12-31T18:58:41.728Z,2.15
2022-12-31T19:01:43.082Z,1.70
2022-12-31T19:04:37.345Z,2.17
2022-12-31T19:07:31.672Z,1.95
2022-12-31T19:10:27.582Z,2.05
2022-12-31T19:13:24.320Z,1.65
2022-12-31T19:16:19.184Z,2.08
2022-12-31T19:19:14.282Z,1.77
2022-12-31T19:22:08.583Z,2.00
2022-12-31T19:25:02.976Z,2.28
2022-12-31T19:27:57.273Z,1.73
2022-12-31T19:30:52.368Z,2.33
2022-12-31T19:33:46.843Z,1.75
2022-12-31T19:36:44.057Z,2.90
2022-12-31T19:39:38.749Z,1.70
2022-12-31T19:42:33.089Z,2.20
2022-12-31T19:45:30.064Z,2.00
2022-12-31T19:48:32.271Z,1.85
2022-12-31T19:51:26.788Z,2.10
2022-12-31T19:54:21.103Z,1.90
2022-12-31T19:57:15.388Z,2.17
2022-12-31T20:00:12.339Z,2.53
2022-12-31T20:03:06.718Z,2.30
2022-12-31T20:06:12.371Z,2.00
2022-12-31T20:09:07.021Z,1.75
2022-12-31T20:12:01.513Z,1.83
2022-12-31T20:14:55.952Z,2.17
2022-12-31T20:17:50.378Z,2.38
2022-12-31T20:20:55.148Z,2.42
2022-12-31T20:23:51.385Z,1.75
2022-12-31T20:26:45.677Z,1.75
2022-12-31T20:29:40.060Z,1.63
2022-12-31T20:32:35.597Z,1.90
2022-12-31T20:35:30.204Z,1.88
2022-12-31T20:38:24.480Z,1.90
2022-12-31T20:41:21.440Z,1.77
2022-12-31T20:44:15.758Z,1.50
2022-12-31T20:47:10.253Z,1.60
2022-12-31T20:50:12.690Z,2.05
2022-12-31T20:53:08.559Z,1.70
2022-12-31T20:56:07.106Z,1.33
2022-12-31T20:59:02.609Z,1.70
2022-12-31T21:02:29.637Z,1.40
2022-12-31T21:05:12.099Z,1.05
2022-12-31T21:08:06.633Z,1.40
2022-12-31T21:11:00.953Z,1.60
2022-12-31T21:13:55.832Z,1.17
2022-12-31T21:16:50.176Z,1.23
2022-12-31T21:19:44.464Z,1.38
2022-12-31T21:22:39.053Z,1.77
2022-12-31T21:25:33.234Z,1.65
2022-12-31T21:28:27.722Z,1.20
2022-12-31T21:31:22.086Z,1.20
2022-12-31T21:34:16.388Z,1.60
2022-12-31T21:37:10.677Z,1.40
2022-12-31T21:40:05.395Z,1.30
2022-12-31T21:43:00.324Z,1.50
2022-12-31T21:46:14.812Z,1.55
2022-12-31T21:49:09.246Z,1.23
2022-12-31T21:52:21.739Z,1.90
2022-12-31T21:55:51.313Z,1.02
2022-12-31T21:58:48.976Z,1.20
2022-12-31T22:02:02.252Z,1.10
2022-12-31T22:05:10.365Z,1.25
2022-12-31T22:08:09.186Z,0.98
2022-12-31T22:11:05.232Z,1.13
2022-12-31T22:13:59.590Z,1.25
2022-12-31T22:16:54.037Z,1.63
2022-12-31T22:20:17.125Z,1.17
2022-12-31T22:23:02.759Z,1.10
2022-12-31T22:25:56.956Z,1.08
2022-12-31T22:28:51.916Z,0.90
2022-12-31T22:31:46.219Z,1.40
2022-12-31T22:34:40.647Z,0.98
2022-12-31T22:37:56.095Z,1.35
2022-12-31T22:40:49.228Z,0.90
2022-12-31T22:43:46.048Z,0.90
2022-12-31T22:49:34.225Z,1.17
2022-12-31T22:52:28.558Z,1.02
2022-12-31T22:55:22.856Z,1.00
2022-12-31T22:58:17.294Z,1.00
2022-12-31T23:01:23.092Z,1.25
2022-12-31T23:04:17.894Z,1.30
2022-12-31T23:07:12.314Z,1.15
2022-12-31T23:10:25.363Z,1.23
2022-12-31T23:13:37.999Z,1.00
2022-12-31T23:16:50.667Z,0.90
2022-12-31T23:20:02.893Z,0.93
2022-12-31T23:23:12.695Z,0.80
2022-12-31T23:26:08.173Z,0.85
2022-12-31T23:29:03.381Z,0.95
2022-12-31T23:31:57.679Z,1.20
2022-12-31T23:34:52.105Z,1.20
2022-12-31T23:37:46.372Z,1.25
2022-12-31T23:40:40.793Z,1.10
2022-12-31T23:43:35.027Z,1.10
2022-12-31T23:46:29.367Z,0.80
2022-12-31T23:49:23.701Z,1.00
2022-12-31T23:52:18.016Z,0.90
2022-12-31T23:55:12.792Z,0.77
2022-12-31T23:58:07.289Z,1.02
